Time;durP1;ratioP1;P1;durP2;ratioP2;P2;SDS_P1;SDS_P2;PMS_P1;PMS_P2;Temp;Humidity;BMP_temperature;BMP_pressure;BME280_temperature;BME280_humidity;BME280_pressure;Samples;Min_cycle;Max_cycle;Signal;HPM_P1;HPM_P2
2021/12/12 00:01:42;;;;;;;0.65;0.57;;;18.80;59.00;;;;;;5003614;28;20018;-68
2021/12/12 00:04:14;;;;;;;0.40;0.30;;;18.80;59.10;;;;;;5003225;28;20050;-68
2021/12/12 00:06:56;;;;;;;2.53;0.40;;;18.80;59.10;;;;;;5002189;28;20496;-68
2021/12/12 00:09:26;;;;;;;0.88;0.30;;;18.80;59.20;;;;;;5013570;28;20080;-68
2021/12/12 00:11:52;;;;;;;0.93;0.40;;;18.80;59.20;;;;;;5013785;28;20103;-68
2021/12/12 00:14:22;;;;;;;1.08;0.40;;;18.80;59.20;;;;;;4998842;28;20022;-68
2021/12/12 00:16:48;;;;;;;0.70;0.50;;;18.80;59.20;;;;;;5007186;28;20018;-68
2021/12/12 00:19:14;;;;;;;0.40;0.30;;;18.80;59.20;;;;;;5013496;28;20041;-68
2021/12/12 00:21:41;;;;;;;0.10;0.10;;;18.80;59.20;;;;;;5014793;28;20029;-67
2021/12/12 00:24:08;;;;;;;1.30;0.30;;;18.80;59.20;;;;;;5014874;28;20025;-68
2021/12/12 00:26:34;;;;;;;1.02;0.43;;;18.80;59.20;;;;;;5014585;28;20024;-68
2021/12/12 00:28:59;;;;;;;1.55;0.30;;;18.80;59.20;;;;;;5014351;28;20034;-67
2021/12/12 00:31:26;;;;;;;1.20;0.38;;;18.80;59.20;;;;;;5013321;28;20026;-68
2021/12/12 00:33:54;;;;;;;0.57;0.30;;;18.80;59.30;;;;;;5013470;28;20444;-67
2021/12/12 00:36:20;;;;;;;2.05;0.45;;;18.80;59.30;;;;;;5013443;28;20022;-67
2021/12/12 00:38:49;;;;;;;0.63;0.40;;;18.80;59.30;;;;;;5004588;28;20022;-67
2021/12/12 00:41:16;;;;;;;0.30;0.20;;;18.70;59.80;;;;;;4988960;28;20024;-68
2021/12/12 00:43:49;;;;;;;0.82;0.40;;;18.80;59.30;;;;;;5003518;28;20033;-67
2021/12/12 00:46:15;;;;;;;;;;;18.80;59.40;;;;;;5001628;28;20026;-67
2021/12/12 00:48:42;;;;;;;0.47;0.32;;;18.70;59.40;;;;;;5014696;28;20044;-67
2021/12/12 00:51:09;;;;;;;0.35;0.30;;;18.70;59.50;;;;;;4995946;28;20026;-67
2021/12/12 00:53:35;;;;;;;0.63;0.38;;;18.70;59.60;;;;;;5012567;28;20117;-68
2021/12/12 00:56:00;;;;;;;0.25;0.25;;;18.70;59.50;;;;;;5014425;28;20112;-67
2021/12/12 00:58:26;;;;;;;0.40;0.35;;;18.70;59.50;;;;;;5012646;28;20056;-67
2021/12/12 01:00:57;;;;;;;0.35;0.20;;;18.70;59.50;;;;;;4996624;28;20049;-68
2021/12/12 01:03:26;;;;;;;0.43;0.30;;;18.70;59.50;;;;;;5012214;28;20022;-68
2021/12/12 01:05:51;;;;;;;0.22;0.20;;;18.70;59.60;;;;;;4992791;28;20030;-67
2021/12/12 01:08:17;;;;;;;0.55;0.50;;;18.70;59.50;;;;;;5000871;28;20021;-67
2021/12/12 01:11:04;;;;;;;0.35;0.30;;;18.70;59.50;;;;;;5012345;28;20034;-68
2021/12/12 01:13:30;;;;;;;0.50;0.40;;;18.70;59.60;;;;;;5013149;28;20026;-67
2021/12/12 01:16:06;;;;;;;0.30;0.20;;;18.70;59.60;;;;;;5012082;28;20033;-68
2021/12/12 01:18:34;;;;;;;1.13;0.20;;;18.70;59.60;;;;;;5013023;28;20026;-67
2021/12/12 01:21:10;;;;;;;0.70;0.55;;;18.70;59.60;;;;;;5011918;28;20111;-68
2021/12/12 01:23:48;;;;;;;0.28;0.15;;;18.70;59.60;;;;;;5011428;28;20030;-67
2021/12/12 01:26:14;;;;;;;1.17;0.28;;;18.70;59.70;;;;;;5011680;28;20029;-67
2021/12/12 01:28:42;;;;;;;1.10;0.32;;;18.70;59.70;;;;;;5012423;28;20427;-67
2021/12/12 01:31:10;;;;;;;0.30;0.30;;;18.70;59.70;;;;;;5000192;28;20034;-68
2021/12/12 01:33:36;;;;;;;0.20;0.20;;;18.70;59.70;;;;;;5010587;28;20114;-67
2021/12/12 01:36:11;;;;;;;0.85;0.35;;;18.70;59.70;;;;;;4977318;28;20093;-67
2021/12/12 01:38:52;;;;;;;0.40;0.30;;;18.70;59.70;;;;;;4994881;28;20069;-67
2021/12/12 01:41:19;;;;;;;0.40;0.30;;;18.70;59.80;;;;;;4993329;28;20042;-67
2021/12/12 01:43:45;;;;;;;0.30;0.30;;;18.70;59.80;;;;;;4977296;28;20069;-67
2021/12/12 01:46:26;;;;;;;0.47;0.25;;;18.70;59.80;;;;;;4994551;28;20027;-68
2021/12/12 01:48:57;;;;;;;0.85;0.40;;;18.80;59.80;;;;;;4993521;28;20022;-68
2021/12/12 01:51:22;;;;;;;0.85;0.20;;;18.70;59.80;;;;;;4994419;28;20113;-68
2021/12/12 01:53:51;;;;;;;0.40;0.30;;;18.70;59.90;;;;;;5012227;28;20112;-68
2021/12/12 01:56:23;;;;;;;0.57;0.30;;;18.70;59.90;;;;;;5012480;28;20026;-67
2021/12/12 01:58:51;;;;;;;0.25;0.20;;;18.80;60.00;;;;;;5013862;28;20069;-68
2021/12/12 02:01:21;;;;;;;1.30;0.40;;;18.70;59.90;;;;;;4977125;28;20054;-68
2021/12/12 02:03:49;;;;;;;0.43;0.32;;;18.70;59.90;;;;;;4990583;28;20042;-67
2021/12/12 02:06:16;;;;;;;1.75;0.40;;;18.80;60.00;;;;;;4977132;28;20033;-67
2021/12/12 02:08:42;;;;;;;0.30;0.30;;;18.80;60.00;;;;;;4992770;28;20026;-67
2021/12/12 02:11:10;;;;;;;1.90;0.20;;;18.80;60.00;;;;;;4989469;28;20085;-67
2021/12/12 02:13:38;;;;;;;0.30;0.30;;;18.80;60.00;;;;;;4978722;28;20113;-67
2021/12/12 02:16:04;;;;;;;1.17;0.30;;;18.80;60.00;;;;;;4992990;28;20105;-67
2021/12/12 02:18:34;;;;;;;0.50;0.20;;;18.80;60.00;;;;;;4992881;28;20110;-67
2021/12/12 02:21:17;;;;;;;0.32;0.20;;;18.80;60.00;;;;;;5005051;28;20028;-67
2021/12/12 02:24:21;;;;;;;0.70;0.30;;;18.80;60.00;;;;;;5012203;28;20053;-67
2021/12/12 02:37:53;;;;;;;0.50;0.30;;;18.70;61.20;;;;;;4921845;29;20680;-68
2021/12/12 02:40:24;;;;;;;0.85;0.40;;;18.70;60.20;;;;;;4933321;29;20039;-68
2021/12/12 02:42:50;;;;;;;2.75;0.40;;;18.70;60.20;;;;;;4930015;29;20027;-68
2021/12/12 02:45:17;;;;;;;0.55;0.40;;;18.70;60.20;;;;;;4904342;29;20218;-67
2021/12/12 02:47:45;;;;;;;0.55;0.25;;;18.70;60.20;;;;;;4908776;29;20032;-68
2021/12/12 02:50:27;;;;;;;0.43;0.40;;;18.70;60.20;;;;;;4911452;29;20034;-68
2021/12/12 02:52:55;;;;;;;0.30;0.30;;;18.80;60.30;;;;;;4908225;29;20028;-67
2021/12/12 02:55:24;;;;;;;1.77;0.35;;;18.70;60.30;;;;;;4911354;29;20036;-68
2021/12/12 02:57:52;;;;;;;0.28;0.22;;;18.70;60.20;;;;;;4908172;29;20024;-67
2021/12/12 03:00:18;;;;;;;0.35;0.20;;;18.70;60.40;;;;;;4915635;29;20051;-68
2021/12/12 03:02:46;;;;;;;1.38;0.45;;;18.70;60.30;;;;;;4932832;29;20024;-67
2021/12/12 03:05:13;;;;;;;3.22;0.30;;;18.70;60.30;;;;;;4917314;29;20055;-67
2021/12/12 03:07:39;;;;;;;0.32;0.32;;;18.70;60.30;;;;;;4933473;29;20499;-67
2021/12/12 03:10:06;;;;;;;0.25;0.25;;;18.70;60.30;;;;;;4917378;29;20067;-67
2021/12/12 03:12:33;;;;;;;0.63;0.20;;;18.70;60.30;;;;;;4928436;28;20121;-67
2021/12/12 03:15:04;;;;;;;0.20;0.20;;;18.70;60.30;;;;;;4995770;28;20476;-67
2021/12/12 03:17:29;;;;;;;0.40;0.25;;;18.70;60.40;;;;;;5013131;28;20052;-67
2021/12/12 03:19:57;;;;;;;0.63;0.45;;;18.70;60.40;;;;;;5012833;28;20117;-68
2021/12/12 03:22:24;;;;;;;0.40;0.20;;;18.70;60.40;;;;;;5013081;28;20483;-67
2021/12/12 03:24:49;;;;;;;1.35;0.30;;;18.70;60.40;;;;;;4995157;28;20125;-67
2021/12/12 03:27:15;;;;;;;0.40;0.22;;;18.70;60.40;;;;;;5013018;28;20026;-67
2021/12/12 03:29:41;;;;;;;0.73;0.30;;;18.70;60.40;;;;;;5012749;28;20030;-67
2021/12/12 03:32:10;;;;;;;0.52;0.28;;;18.70;60.40;;;;;;4995330;28;20551;-67
2021/12/12 03:34:38;;;;;;;0.73;0.30;;;18.70;60.40;;;;;;5012981;28;20380;-68
2021/12/12 03:37:05;;;;;;;0.60;0.30;;;18.70;60.50;;;;;;5011193;28;20050;-67
2021/12/12 03:39:33;;;;;;;0.60;0.20;;;18.70;60.40;;;;;;4995183;28;20452;-68
2021/12/12 03:42:00;;;;;;;0.45;0.40;;;18.70;60.50;;;;;;5011383;28;20480;-68
2021/12/12 03:44:28;;;;;;;0.50;0.30;;;18.70;60.50;;;;;;4995380;28;20484;-68
2021/12/12 03:46:56;;;;;;;0.52;0.30;;;18.70;60.50;;;;;;4996241;28;20026;-68
2021/12/12 03:49:22;;;;;;;0.80;0.30;;;18.70;60.50;;;;;;5016357;28;20431;-68
2021/12/12 03:51:47;;;;;;;0.40;0.40;;;18.70;60.50;;;;;;5014536;28;20084;-68
2021/12/12 03:54:14;;;;;;;0.30;0.30;;;18.70;60.60;;;;;;5015029;28;20034;-68
2021/12/12 03:56:41;;;;;;;0.43;0.22;;;18.70;60.60;;;;;;5014878;28;20029;-68
2021/12/12 03:59:07;;;;;;;0.55;0.20;;;18.70;60.60;;;;;;5012213;28;20065;-67
2021/12/12 04:01:35;;;;;;;1.27;0.30;;;18.70;60.60;;;;;;4996480;28;20062;-67
2021/12/12 04:04:13;;;;;;;0.20;0.20;;;18.70;60.60;;;;;;4996373;28;20473;-67
2021/12/12 04:06:39;;;;;;;1.38;0.30;;;18.70;60.70;;;;;;4979756;28;20019;-67
2021/12/12 04:09:06;;;;;;;0.40;0.38;;;18.70;60.70;;;;;;4978893;28;20547;-68
2021/12/12 04:11:34;;;;;;;0.38;0.22;;;18.70;60.70;;;;;;4979066;28;20058;-68
2021/12/12 04:14:02;;;;;;;0.52;0.30;;;18.70;60.70;;;;;;4996443;28;20109;-68
2021/12/12 04:16:28;;;;;;;0.88;0.38;;;18.70;60.70;;;;;;4998112;28;20015;-68
2021/12/12 04:18:54;;;;;;;1.08;0.30;;;18.70;60.70;;;;;;4988157;28;20105;-67
2021/12/12 04:21:21;;;;;;;0.20;0.20;;;18.70;60.80;;;;;;5000697;28;20030;-67
2021/12/12 04:23:46;;;;;;;0.25;0.25;;;18.70;60.70;;;;;;4995913;28;20026;-67
2021/12/12 04:26:12;;;;;;;0.22;0.20;;;18.70;60.70;;;;;;4995964;28;20030;-67
2021/12/12 04:28:39;;;;;;;0.47;0.32;;;18.70;60.80;;;;;;4996020;28;20030;-67
2021/12/12 04:31:04;;;;;;;0.60;0.25;;;18.70;60.80;;;;;;4995782;28;20106;-67
2021/12/12 04:33:30;;;;;;;0.45;0.30;;;18.70;60.80;;;;;;4994808;28;20061;-67
2021/12/12 04:35:55;;;;;;;0.35;0.30;;;18.70;60.80;;;;;;4994384;28;20480;-67
2021/12/12 04:38:23;;;;;;;0.52;0.20;;;18.70;60.80;;;;;;4995768;28;20038;-67
2021/12/12 04:40:48;;;;;;;0.38;0.30;;;18.70;60.80;;;;;;4978352;28;20062;-68
2021/12/12 04:43:14;;;;;;;0.50;0.20;;;18.70;60.80;;;;;;4995779;28;20105;-67
2021/12/12 04:45:57;;;;;;;0.20;0.20;;;18.70;60.90;;;;;;4995715;28;20026;-67
2021/12/12 04:51:29;;;;;;;0.20;0.20;;;18.70;60.90;;;;;;4981832;28;20030;-67
2021/12/12 04:54:36;;;;;;;0.77;0.30;;;18.70;61.00;;;;;;5013008;28;20033;-67
2021/12/12 04:57:20;;;;;;;0.43;0.32;;;18.70;61.00;;;;;;5014695;28;20468;-67
2021/12/12 04:59:49;;;;;;;0.20;0.20;;;18.70;61.00;;;;;;4989769;28;20381;-67
2021/12/12 05:02:31;;;;;;;1.40;0.20;;;18.70;61.10;;;;;;4994118;28;20022;-67
2021/12/12 05:05:15;;;;;;;;;;;18.70;61.10;;;;;;4995243;28;20046;-67
2021/12/12 05:07:56;;;;;;;0.47;0.28;;;18.60;61.10;;;;;;4994061;28;19912;-67
2021/12/12 05:10:36;;;;;;;1.20;0.30;;;18.60;61.30;;;;;;4995129;28;20041;-67
2021/12/12 05:13:24;;;;;;;0.55;0.20;;;18.60;61.30;;;;;;4979494;28;20476;-67
2021/12/12 05:15:58;;;;;;;0.30;0.28;;;18.60;61.30;;;;;;4993917;28;20076;-67
2021/12/12 05:18:29;;;;;;;0.80;0.20;;;18.60;61.30;;;;;;4978705;28;20019;-67
2021/12/12 05:21:08;;;;;;;0.47;0.20;;;18.60;61.20;;;;;;4978269;28;20037;-67
2021/12/12 05:23:34;;;;;;;0.22;0.10;;;18.60;61.20;;;;;;4994072;28;20089;-67
2021/12/12 05:26:01;;;;;;;0.13;0.13;;;18.60;61.20;;;;;;4993550;28;20524;-67
2021/12/12 05:28:31;;;;;;;0.43;0.25;;;18.60;61.20;;;;;;4994855;28;20479;-67
2021/12/12 05:30:58;;;;;;;0.82;0.30;;;18.60;61.20;;;;;;4977712;28;20471;-67
2021/12/12 05:33:23;;;;;;;0.10;0.10;;;18.70;61.20;;;;;;4993311;28;20023;-67
2021/12/12 05:35:49;;;;;;;0.30;0.30;;;18.70;61.20;;;;;;4977351;28;20030;-67
2021/12/12 05:38:15;;;;;;;0.30;0.30;;;18.70;61.20;;;;;;4977321;28;20110;-67
2021/12/12 05:40:42;;;;;;;0.80;0.28;;;18.60;61.20;;;;;;4977447;28;20038;-67
2021/12/12 05:43:08;;;;;;;1.45;0.13;;;18.60;61.20;;;;;;4977088;28;20022;-67
2021/12/12 05:45:34;;;;;;;0.20;0.20;;;18.60;61.20;;;;;;4977134;28;20481;-68
2021/12/12 05:48:00;;;;;;;1.00;0.30;;;18.60;61.30;;;;;;4992984;28;20496;-67
2021/12/12 05:50:26;;;;;;;0.35;0.20;;;18.60;61.20;;;;;;4977198;28;20457;-67
2021/12/12 05:52:54;;;;;;;0.68;0.40;;;18.60;61.20;;;;;;4982412;28;20056;-67
2021/12/12 05:55:21;;;;;;;0.30;0.30;;;18.70;61.30;;;;;;5005240;28;20030;-67
2021/12/12 05:57:53;;;;;;;0.50;0.17;;;18.60;61.30;;;;;;5003393;28;20054;-67
2021/12/12 06:00:19;;;;;;;1.33;0.10;;;18.70;61.30;;;;;;5007458;28;20053;-67
2021/12/12 06:02:45;;;;;;;0.30;0.28;;;18.70;61.30;;;;;;5003834;28;20026;-67
2021/12/12 06:05:11;;;;;;;0.60;0.30;;;18.70;61.40;;;;;;4985140;28;20412;-67
2021/12/12 06:07:36;;;;;;;0.65;0.30;;;18.70;61.40;;;;;;4984435;28;20153;-68
2021/12/12 06:10:07;;;;;;;0.57;0.38;;;18.70;61.40;;;;;;4985073;28;20105;-68
2021/12/12 06:12:33;;;;;;;0.80;0.10;;;18.70;61.40;;;;;;5004816;28;20041;-68
2021/12/12 06:14:59;;;;;;;1.80;0.40;;;18.70;61.40;;;;;;5003149;28;20041;-68
2021/12/12 06:17:25;;;;;;;0.38;0.20;;;18.70;61.40;;;;;;5000226;28;20022;-68
2021/12/12 06:19:51;;;;;;;0.22;0.20;;;18.70;61.40;;;;;;5000395;28;20018;-68
2021/12/12 06:22:16;;;;;;;0.85;0.10;;;18.70;61.40;;;;;;4986518;28;20052;-67
2021/12/12 06:24:42;;;;;;;0.50;0.20;;;18.70;61.40;;;;;;5003755;28;20030;-68
2021/12/12 06:27:13;;;;;;;7.63;0.35;;;18.70;61.40;;;;;;5003265;28;20429;-67
2021/12/12 06:29:39;;;;;;;2.60;0.22;;;18.70;62.40;;;;;;5000291;28;20113;-67
2021/12/12 06:32:05;;;;;;;2.42;0.22;;;18.70;61.40;;;;;;5000521;28;20397;-68
2021/12/12 06:34:31;;;;;;;0.82;0.30;;;18.70;61.40;;;;;;5003428;28;20044;-67
2021/12/12 06:36:56;;;;;;;0.28;0.25;;;18.70;61.40;;;;;;5003622;28;20077;-67
2021/12/12 06:39:22;;;;;;;0.75;0.30;;;18.70;61.40;;;;;;4995604;28;20112;-67
2021/12/12 06:41:48;;;;;;;1.30;0.40;;;18.70;61.50;;;;;;4997287;28;20077;-67
2021/12/12 06:44:14;;;;;;;4.40;0.30;;;18.70;61.40;;;;;;5008996;28;20057;-67
2021/12/12 06:46:40;;;;;;;0.50;0.22;;;18.70;61.40;;;;;;5010460;28;20574;-68
2021/12/12 06:49:07;;;;;;;1.65;0.20;;;18.70;61.40;;;;;;5008650;28;20052;-68
2021/12/12 06:51:35;;;;;;;0.40;0.13;;;18.70;61.40;;;;;;5009615;28;20395;-68
2021/12/12 06:54:01;;;;;;;2.45;0.40;;;18.70;61.40;;;;;;4990992;28;20026;-68
2021/12/12 06:56:26;;;;;;;0.95;0.20;;;18.70;61.40;;;;;;4990018;28;20022;-67
2021/12/12 06:58:52;;;;;;;0.65;0.20;;;18.70;61.40;;;;;;4991511;28;20030;-67
2021/12/12 07:01:23;;;;;;;1.17;0.20;;;18.70;62.40;;;;;;4994570;28;20121;-67
2021/12/12 07:03:49;;;;;;;0.98;0.25;;;18.70;61.40;;;;;;5011210;28;20057;-68
2021/12/12 07:06:19;;;;;;;0.25;0.25;;;18.70;61.40;;;;;;5011258;28;20492;-67
2021/12/12 07:08:44;;;;;;;3.30;0.40;;;18.70;61.40;;;;;;4995193;28;20029;-67
2021/12/12 07:11:10;;;;;;;0.57;0.15;;;18.70;61.40;;;;;;4994872;28;20084;-67
2021/12/12 07:13:35;;;;;;;0.32;0.28;;;18.60;61.40;;;;;;5011227;28;20025;-67
2021/12/12 07:16:02;;;;;;;0.60;0.22;;;18.70;61.50;;;;;;5010977;28;20014;-67
2021/12/12 07:18:29;;;;;;;0.73;0.25;;;18.70;61.50;;;;;;5011105;28;20034;-67
2021/12/12 07:20:57;;;;;;;1.40;0.40;;;18.70;61.50;;;;;;5011231;28;20018;-67
2021/12/12 07:23:23;;;;;;;2.30;0.32;;;18.70;61.50;;;;;;5015040;28;20375;-68
2021/12/12 07:25:48;;;;;;;1.33;0.30;;;18.60;61.50;;;;;;4998813;28;20125;-68
2021/12/12 07:28:14;;;;;;;1.95;0.22;;;18.70;61.50;;;;;;5016329;28;20034;-68
2021/12/12 07:30:40;;;;;;;0.63;0.38;;;18.70;61.60;;;;;;5014760;28;20022;-67
2021/12/12 07:33:06;;;;;;;0.20;0.20;;;18.70;61.60;;;;;;4998608;28;20022;-67
2021/12/12 07:35:34;;;;;;;0.20;0.20;;;18.70;61.60;;;;;;5014848;28;20029;-68
2021/12/12 07:37:59;;;;;;;0.68;0.32;;;18.70;61.60;;;;;;5016065;28;20026;-68
2021/12/12 07:40:25;;;;;;;1.15;0.30;;;18.70;61.60;;;;;;5015795;28;20558;-68
2021/12/12 07:42:50;;;;;;;0.30;0.30;;;18.70;61.70;;;;;;4998282;28;20026;-68
2021/12/12 07:45:16;;;;;;;0.50;0.22;;;18.70;61.60;;;;;;5015515;28;20026;-68
2021/12/12 07:47:43;;;;;;;0.55;0.40;;;18.70;61.70;;;;;;4998568;28;20076;-68
2021/12/12 07:50:11;;;;;;;0.38;0.20;;;18.70;61.70;;;;;;5014544;28;20022;-68
2021/12/12 07:52:36;;;;;;;0.35;0.20;;;18.70;61.70;;;;;;5007171;28;20031;-68
2021/12/12 07:55:03;;;;;;;0.32;0.30;;;18.60;61.60;;;;;;4978728;28;20023;-68
2021/12/12 07:57:29;;;;;;;0.47;0.40;;;18.70;61.70;;;;;;4978666;28;20030;-68
2021/12/12 07:59:55;;;;;;;0.73;0.25;;;18.70;61.80;;;;;;4987496;28;20514;-68
2021/12/12 08:02:21;;;;;;;0.52;0.20;;;18.60;61.70;;;;;;5015424;28;20041;-67
2021/12/12 08:04:48;;;;;;;1.20;0.13;;;18.70;61.70;;;;;;5015474;28;20050;-67
2021/12/12 08:07:17;;;;;;;0.40;0.40;;;18.60;61.70;;;;;;5014262;28;20026;-68
2021/12/12 08:09:43;;;;;;;0.75;0.25;;;18.60;61.70;;;;;;5014357;28;20022;-68
2021/12/12 08:12:10;;;;;;;0.38;0.30;;;18.70;61.70;;;;;;5014010;28;20034;-68
2021/12/12 08:14:36;;;;;;;0.30;0.20;;;18.60;61.70;;;;;;5013917;28;20018;-68
2021/12/12 08:17:02;;;;;;;0.28;0.13;;;18.70;61.80;;;;;;5015212;28;20026;-67
2021/12/12 08:19:29;;;;;;;0.50;0.20;;;18.60;61.70;;;;;;5015287;28;20041;-68
2021/12/12 08:21:56;;;;;;;0.60;0.30;;;18.60;61.70;;;;;;5014190;28;20037;-68
2021/12/12 08:24:22;;;;;;;0.13;0.10;;;18.60;61.70;;;;;;4997662;28;20018;-68
2021/12/12 08:26:47;;;;;;;0.22;0.20;;;18.60;61.70;;;;;;4997847;28;20030;-67
2021/12/12 08:29:13;;;;;;;0.57;0.30;;;18.60;61.70;;;;;;5013274;28;20025;-67
2021/12/12 08:31:39;;;;;;;0.30;0.20;;;18.70;61.90;;;;;;4997567;28;20038;-67
2021/12/12 08:34:09;;;;;;;0.25;0.25;;;18.70;61.80;;;;;;4996052;28;20061;-67
2021/12/12 08:36:36;;;;;;;2.40;0.30;;;18.70;61.80;;;;;;5010900;28;20439;-67
2021/12/12 08:39:06;;;;;;;0.35;0.28;;;18.60;61.80;;;;;;5000510;28;20033;-68
2021/12/12 08:41:32;;;;;;;1.00;0.22;;;18.60;61.80;;;;;;5002836;28;20029;-67
2021/12/12 08:43:57;;;;;;;0.47;0.30;;;18.60;61.80;;;;;;5008509;28;20029;-67
2021/12/12 08:46:23;;;;;;;0.25;0.20;;;18.60;61.90;;;;;;4980747;28;20042;-67
2021/12/12 08:48:50;;;;;;;1.10;0.70;;;18.60;61.80;;;;;;5008558;28;20019;-67
2021/12/12 08:51:22;;;;;;;0.90;0.20;;;18.60;61.90;;;;;;5002893;28;20096;-67
2021/12/12 08:53:50;;;;;;;0.25;0.20;;;18.70;61.90;;;;;;4996804;28;20022;-67
2021/12/12 08:56:29;;;;;;;0.60;0.30;;;18.60;61.90;;;;;;4996444;28;20034;-67
2021/12/12 08:58:55;;;;;;;0.98;0.20;;;18.60;61.90;;;;;;4994826;28;20046;-68
2021/12/12 09:01:20;;;;;;;0.25;0.22;;;18.60;61.90;;;;;;4997131;28;20050;-67
2021/12/12 09:04:00;;;;;;;0.77;0.10;;;18.70;62.00;;;;;;5013947;28;20859;-68
2021/12/12 09:06:28;;;;;;;0.10;0.08;;;18.70;62.00;;;;;;4996946;28;20022;-67
2021/12/12 09:09:04;;;;;;;0.40;0.30;;;18.70;62.00;;;;;;5013231;28;20033;-68
2021/12/12 09:11:45;;;;;;;0.57;0.20;;;18.60;61.90;;;;;;4997674;28;20048;-68
2021/12/12 09:14:44;;;;;;;0.25;0.20;;;18.70;62.10;;;;;;5013858;28;20029;-70
2021/12/12 09:17:29;;;;;;;0.63;0.30;;;18.70;62.10;;;;;;5000561;28;20117;-70
2021/12/12 09:19:57;;;;;;;1.25;0.20;;;18.60;62.00;;;;;;5006842;28;20014;-70
2021/12/12 09:22:34;;;;;;;0.55;0.20;;;18.70;62.30;;;;;;5009508;28;20022;-69
2021/12/12 09:25:03;;;;;;;0.30;0.20;;;18.70;62.30;;;;;;5012299;28;20476;-70
2021/12/12 09:27:46;;;;;;;0.47;0.30;;;18.70;62.40;;;;;;5004054;28;20045;-72
2021/12/12 09:30:17;;;;;;;1.15;0.50;;;18.80;62.30;;;;;;5000812;28;20481;-72
2021/12/12 09:33:09;;;;;;;0.50;0.15;;;18.80;62.50;;;;;;5003243;28;20022;-70
2021/12/12 09:35:41;;;;;;;1.50;0.30;;;18.80;62.40;;;;;;5007929;28;20034;-71
2021/12/12 09:38:39;;;;;;;0.38;0.38;;;18.80;62.50;;;;;;5005948;28;20014;-73
2021/12/12 09:41:42;;;;;;;1.33;0.40;;;18.80;62.40;;;;;;4981162;28;20038;-72
2021/12/12 09:44:45;;;;;;;0.20;0.10;;;18.90;62.50;;;;;;4952047;28;20058;-72
2021/12/12 09:51:15;;;;;;;0.20;0.15;;;18.90;62.50;;;;;;4911579;29;20409;-72
2021/12/12 09:53:57;;;;;;;0.20;0.20;;;19.00;62.40;;;;;;4935443;29;20035;-72
2021/12/12 09:56:56;;;;;;;0.50;0.30;;;19.00;62.50;;;;;;4936581;29;20031;-72
2021/12/12 09:59:55;;;;;;;0.28;0.20;;;19.00;62.40;;;;;;4932847;29;20039;-72
2021/12/12 10:02:46;;;;;;;0.57;0.30;;;19.00;62.40;;;;;;4941430;29;20043;-72
2021/12/12 10:05:36;;;;;;;0.10;0.10;;;19.10;62.60;;;;;;4932724;29;20545;-72
2021/12/12 10:08:16;;;;;;;0.32;0.20;;;19.10;62.60;;;;;;4941131;29;20040;-67
2021/12/12 10:10:52;;;;;;;0.43;0.40;;;19.10;62.50;;;;;;4933926;29;20509;-67
2021/12/12 10:13:30;;;;;;;0.43;0.20;;;19.10;62.30;;;;;;4951834;29;20042;-67
2021/12/12 10:16:06;;;;;;;0.10;0.10;;;19.10;62.20;;;;;;4944671;29;20059;-67
2021/12/12 10:18:53;;;;;;;0.20;0.20;;;19.20;62.10;;;;;;4935834;29;20031;-67
2021/12/12 10:21:39;;;;;;;0.10;0.10;;;19.10;62.00;;;;;;4977970;28;20457;-67
2021/12/12 10:24:35;;;;;;;0.65;0.17;;;19.20;61.70;;;;;;4980810;28;20030;-67
2021/12/12 10:27:20;;;;;;;0.68;0.30;;;19.20;61.70;;;;;;5005009;28;20508;-67
2021/12/12 10:30:07;;;;;;;0.57;0.13;;;19.20;61.70;;;;;;4991436;28;20030;-67
2021/12/12 10:32:35;;;;;;;0.20;0.10;;;19.20;61.70;;;;;;4991587;28;20018;-67
2021/12/12 10:35:03;;;;;;;1.40;0.50;;;19.10;61.70;;;;;;4987025;28;20018;-67
2021/12/12 10:37:50;;;;;;;8.20;1.65;;;19.20;61.70;;;;;;5008792;28;20029;-67
2021/12/12 10:40:39;;;;;;;6.00;1.52;;;19.20;61.70;;;;;;4994701;28;20156;-67
2021/12/12 10:43:08;;;;;;;6.68;1.58;;;19.20;61.70;;;;;;5002692;28;20034;-67
2021/12/12 10:45:41;;;;;;;4.10;1.20;;;19.20;61.70;;;;;;4992490;28;20022;-67
2021/12/12 10:48:18;;;;;;;3.80;1.20;;;19.30;61.80;;;;;;5009673;28;20069;-67
2021/12/12 10:50:55;;;;;;;3.75;1.10;;;19.30;61.80;;;;;;5007814;28;20033;-67
2021/12/12 10:53:34;;;;;;;3.85;1.13;;;19.30;61.70;;;;;;5009117;28;20095;-66
2021/12/12 10:56:18;;;;;;;3.17;1.33;;;19.30;61.70;;;;;;5008518;28;20030;-67
2021/12/12 10:58:48;;;;;;;4.72;1.13;;;19.30;61.60;;;;;;5004551;28;20042;-67
2021/12/12 11:01:30;;;;;;;3.55;1.30;;;19.30;61.70;;;;;;5006319;28;20028;-67
2021/12/12 11:04:17;;;;;;;3.30;0.93;;;19.30;61.50;;;;;;4989798;28;20121;-67
2021/12/12 11:06:46;;;;;;;3.28;1.20;;;19.30;61.50;;;;;;4995356;28;20370;-67
2021/12/12 11:09:34;;;;;;;2.80;1.02;;;19.30;61.60;;;;;;4984582;28;20048;-67
2021/12/12 11:12:06;;;;;;;2.35;0.93;;;19.30;61.40;;;;;;5002628;28;20396;-67
2021/12/12 11:14:51;;;;;;;3.25;0.90;;;19.30;61.50;;;;;;5004530;28;20031;-67
2021/12/12 11:17:19;;;;;;;3.10;0.85;;;19.40;61.60;;;;;;5009570;28;20396;-67
2021/12/12 11:20:24;;;;;;;3.42;0.80;;;19.40;61.60;;;;;;5007035;28;20022;-67
2021/12/12 11:22:59;;;;;;;1.58;0.80;;;19.40;61.40;;;;;;4999854;28;20034;-67
2021/12/12 11:25:27;;;;;;;5.18;0.98;;;19.40;61.60;;;;;;4983024;28;20112;-67
2021/12/12 11:27:57;;;;;;;2.17;0.73;;;19.30;61.60;;;;;;5001008;28;20053;-67
2021/12/12 11:30:42;;;;;;;2.17;0.80;;;19.40;61.50;;;;;;5005957;28;20026;-67
2021/12/12 11:33:09;;;;;;;2.13;0.75;;;19.40;61.40;;;;;;5007691;28;20034;-67
2021/12/12 11:35:41;;;;;;;1.95;0.82;;;19.40;61.50;;;;;;4979431;28;20058;-67
2021/12/12 11:38:12;;;;;;;3.20;0.63;;;19.40;61.50;;;;;;4990962;28;20030;-67
2021/12/12 11:40:47;;;;;;;2.92;0.82;;;19.40;61.50;;;;;;5011332;28;20018;-67
2021/12/12 11:43:34;;;;;;;1.83;0.70;;;19.40;61.40;;;;;;5007968;28;20108;-67
2021/12/12 11:46:02;;;;;;;1.90;0.73;;;19.50;61.40;;;;;;5000369;28;20109;-67
2021/12/12 11:48:54;;;;;;;1.88;0.80;;;19.40;61.40;;;;;;5004579;28;20018;-67
2021/12/12 11:51:51;;;;;;;2.65;0.70;;;19.50;61.30;;;;;;4999974;28;20037;-67
2021/12/12 11:54:35;;;;;;;2.13;0.70;;;19.50;61.40;;;;;;5002672;28;20080;-68
2021/12/12 11:57:12;;;;;;;1.95;0.55;;;19.50;61.30;;;;;;5002897;28;20022;-67
2021/12/12 11:59:50;;;;;;;3.38;0.95;;;19.50;61.40;;;;;;4984696;28;20018;-67
2021/12/12 12:02:18;;;;;;;3.22;0.82;;;19.50;61.40;;;;;;4997924;28;20021;-67
2021/12/12 12:05:23;;;;;;;1.02;0.50;;;19.50;61.40;;;;;;5005177;28;20057;-67
2021/12/12 12:08:35;;;;;;;2.65;0.82;;;19.50;61.30;;;;;;4994486;28;20233;-67
2021/12/12 12:11:11;;;;;;;1.58;0.80;;;19.50;61.30;;;;;;4992469;28;20041;-67
2021/12/12 12:14:19;;;;;;;2.95;0.60;;;19.50;61.30;;;;;;5010374;28;20100;-67
2021/12/12 12:16:58;;;;;;;1.77;0.80;;;19.50;61.20;;;;;;4972748;28;20050;-67
2021/12/12 12:19:48;;;;;;;0.90;0.50;;;19.50;61.40;;;;;;4970282;28;20030;-67
2021/12/12 12:22:50;;;;;;;0.80;0.57;;;19.50;61.20;;;;;;4971975;28;20207;-67
2021/12/12 12:28:31;;;;;;;2.10;0.70;;;19.50;62.20;;;;;;4914541;29;20044;-67
2021/12/12 12:31:00;;;;;;;1.30;0.57;;;19.50;61.30;;;;;;4914687;29;20545;-68
2021/12/12 12:34:02;;;;;;;1.10;0.50;;;19.40;61.30;;;;;;4913765;29;20069;-66
2021/12/12 12:36:58;;;;;;;0.95;0.60;;;19.50;61.10;;;;;;4915072;29;20103;-66
2021/12/12 12:39:24;;;;;;;2.10;0.73;;;19.50;61.10;;;;;;4915292;29;20036;-66
2021/12/12 12:42:02;;;;;;;2.67;0.80;;;19.40;61.20;;;;;;4914740;29;20100;-66
2021/12/12 12:44:49;;;;;;;0.85;0.50;;;19.50;61.10;;;;;;4914943;29;20443;-66
2021/12/12 12:47:51;;;;;;;1.70;0.90;;;19.50;61.20;;;;;;4914494;29;20070;-66
2021/12/12 12:50:35;;;;;;;0.77;0.50;;;19.50;61.00;;;;;;4913548;29;20024;-66
2021/12/12 12:53:39;;;;;;;1.00;0.77;;;19.50;61.20;;;;;;4918093;29;20050;-66
2021/12/12 12:56:23;;;;;;;2.13;0.52;;;19.50;61.00;;;;;;4939305;29;20035;-66
2021/12/12 12:59:09;;;;;;;1.65;0.32;;;19.50;61.20;;;;;;4947957;29;20449;-66
2021/12/12 13:01:50;;;;;;;1.23;0.52;;;19.50;61.20;;;;;;4947773;29;20517;-66
2021/12/12 13:04:53;;;;;;;0.80;0.55;;;19.50;61.00;;;;;;4904283;29;20047;-66
2021/12/12 13:07:48;;;;;;;1.30;0.50;;;19.50;61.00;;;;;;4941281;29;20031;-66
2021/12/12 13:10:24;;;;;;;1.45;0.60;;;19.50;61.00;;;;;;4946743;29;20024;-66
2021/12/12 13:13:01;;;;;;;1.52;0.60;;;19.50;61.00;;;;;;4925913;29;20031;-66
2021/12/12 13:15:45;;;;;;;1.70;0.50;;;19.50;61.00;;;;;;4920678;29;20019;-66
2021/12/12 13:18:26;;;;;;;0.68;0.40;;;19.50;61.90;;;;;;4950578;28;20037;-66
2021/12/12 13:21:23;;;;;;;1.25;0.60;;;19.50;61.00;;;;;;4937480;29;20031;-66
2021/12/12 13:24:03;;;;;;;1.02;0.50;;;19.50;60.90;;;;;;4876443;29;20037;-66
2021/12/12 13:27:00;;;;;;;1.02;0.57;;;19.50;61.00;;;;;;4860253;29;20037;-66
2021/12/12 13:30:00;;;;;;;0.95;0.40;;;19.50;60.90;;;;;;4875375;29;20089;-66
2021/12/12 13:32:50;;;;;;;0.30;0.30;;;19.50;60.80;;;;;;4859950;29;20102;-66
2021/12/12 13:35:24;;;;;;;1.40;0.50;;;19.50;60.90;;;;;;4863630;29;20049;-66
2021/12/12 13:38:12;;;;;;;1.77;0.40;;;19.50;60.90;;;;;;4858134;29;20037;-66
2021/12/12 13:40:44;;;;;;;0.68;0.40;;;19.50;60.90;;;;;;4876115;29;20385;-66